Weser, Texas
Current Conditions -  °F | °C
As of 6:15 PM on Monday 20 Oct 2014 (Local Time) from KBEA Reporting Station
Overcast Overcast  
Wind Chill: 25°   Ceiling: 8000
Heat Index: 25°   Visibility: 10mi
Dew Point: 19°   Wind: 7mph
Humidity: 72%   Direction: 130°SE
Pressure: 29.96"   Gusts: NA
Location:  28.6563°N, 97.4287°W
Report Text: KBEA 202315Z AUTO 13006KT 10SM SCT070 OVC080 25/19 A2996 RMK AO2 T02450191
Loading
Personal Weather Stations






























Interactive Weather Map
Tropical Storm Tracking
New forecast layout! Learn more

10-Day Weather Forecast

Advertisements
Track Severe Weather on mobile